Flight Track Log - Related Links

Times and Time Zones

All times are in EDT time to prevent confusion due to time zone crossing. See the EJA898 flight status page for this flight to view local times or setup timezone preferences in your user account.

Time Position Orientation Groundspeed Altitude Reporting Facility
EDT Latitude Longitude Course Direction KTS MPH feet Rate Location/Type
Wed 11:09:52 AM 31.2117 -81.3694 10° North 360 414 39,000  Level Jacksonville Center
Wed 11:10:52 AM 31.2719 -81.3589 North 276 318 3,300 -16,550 Descending Jacksonville Center
Wed 11:11:52 AM 31.3267 -81.3992 328° Northwest 208 239 5,900 2,700 Climbing Jacksonville Center
Wed 11:12:00 AM 31.7924 -81.2515 10° North  Level FlightAware Approximate
Wed 11:12:52 AM 31.3756 -81.4569 315° West 264 304 8,700  Level Jacksonville Center
Wed 11:13:00 AM 31.8997 -81.2301 10° North  Level FlightAware Approximate
Wed 11:13:52 AM 31.4325 -81.5242 315° West 293 337 9,700  Level Jacksonville Center
Wed 11:14:52 AM 31.5022 -81.5964 319° Northwest 293 337 13,100 2,850 Climbing Jacksonville Center
Wed 11:15:52 AM 31.5856 -81.5708 15° North 280 322 15,400 2,050 Climbing Jacksonville Center
Wed 11:16:52 AM 31.6622 -81.5183 30° Northeast 291 335 17,200 1,800 Climbing Jacksonville Center
Wed 11:17:52 AM 31.7617 -81.4558 28° Northeast 355 409 19,000 1,750 Climbing Jacksonville Center
Wed 11:18:52 AM 31.8528 -81.3958 29° Northeast 376 433 20,700 1,800 Climbing Jacksonville Center
Wed 11:19:52 AM 31.9503 -81.3306 30° Northeast 392 451 22,600 1,850 Climbing Jacksonville Center
Wed 11:20:52 AM 32.0497 -81.2650 29° Northeast 397 457 24,400 1,700 Climbing Jacksonville Center
Wed 11:21:52 AM 32.1469 -81.1994 30° Northeast 397 457 26,000 1,550 Climbing Jacksonville Center
Wed 11:22:52 AM 32.2461 -81.1289 31° Northeast 405 466 27,500 1,550 Climbing Jacksonville Center
Wed 11:23:52 AM 32.3475 -81.0581 31° Northeast 411 473 29,100 1,500 Climbing Jacksonville Center
Wed 11:24:52 AM 32.4464 -80.9847 32° Northeast 411 473 30,500 1,400 Climbing Jacksonville Center
Wed 11:25:52 AM 32.5456 -80.9161 30° Northeast 416 479 31,900 1,200 Climbing Jacksonville Center
Wed 11:26:52 AM 32.6447 -80.8425 32° Northeast 422 486 32,900 550 Climbing Jacksonville Center
Wed 11:27:52 AM 32.7478 -80.7658 32° Northeast 422 486 33,000 50 Climbing Jacksonville Center
Wed 11:28:52 AM 32.8572 -80.6867 31° Northeast 434 499 33,000 400 Level Jacksonville Center
Wed 11:29:52 AM 32.9664 -80.6072 31° Northeast 447 514 33,800 800 Climbing Jacksonville Center
Wed 11:30:52 AM 33.0631 -80.5381 31° Northeast 447 514 34,600 900 Climbing Jacksonville Center
Wed 11:31:52 AM 33.1681 -80.4631 31° Northeast 442 509 35,600 1,000 Climbing Jacksonville Center
Wed 11:32:52 AM 33.2731 -80.3833 32° Northeast 442 509 36,600 1,000 Climbing Jacksonville Center
Wed 11:33:52 AM 33.3739 -80.3083 32° Northeast 432 497 37,600 1,000 Climbing Jacksonville Center
Wed 11:34:52 AM 33.4725 -80.2333 32° Northeast 426 490 38,600 700 Climbing Jacksonville Center
Wed 11:35:52 AM 33.5711 -80.1606 32° Northeast 421 484 39,000 200 Climbing Jacksonville Center
Wed 11:36:52 AM 33.6694 -80.0850 33° Northeast 421 484 39,000  Level Jacksonville Center
Wed 11:37:52 AM 33.7722 -80.0069 32° Northeast 426 490 39,000 -50 Level Jacksonville Center
Wed 11:38:52 AM 33.8767 -79.9283 32° Northeast 426 490 38,900  Descending Jacksonville Center
Wed 11:39:52 AM 33.9833 -79.8497 31° Northeast 431 496 39,000 50 Climbing Jacksonville Center
Wed 11:40:52 AM 34.0919 -79.7681 32° Northeast 436 502 39,000  Level Jacksonville Center
Wed 11:41:52 AM 34.1964 -79.6917 31° Northeast 441 507 39,000  Level Jacksonville Center
Wed 11:42:52 AM 34.3164 -79.6519 15° North 411 473 39,000  Level Jacksonville Center
Wed 11:43:52 AM 34.4350 -79.6450 North 411 473 39,000  Level Jacksonville Center
Wed 11:45:31 AM 34.6147 -79.6347 North 422 486 39,000  Level Washington Center
Wed 11:46:31 AM 34.7317 -79.6278 North 422 486 39,000  Level Washington Center
Wed 11:47:31 AM 34.8489 -79.6211 North 422 486 39,000  Level Washington Center
Wed 11:48:31 AM 34.9617 -79.6139 North 422 486 39,000  Level Washington Center
Wed 11:49:32 AM 35.0786 -79.6097 North 422 486 39,000  Level Washington Center
Wed 11:50:31 AM 35.1967 -79.5747 14° North 422 486 39,000  Level Washington Center
Wed 11:51:31 AM 35.3036 -79.4986 30° Northeast 427 491 39,000  Level Washington Center
Wed 11:52:31 AM 35.4125 -79.4225 30° Northeast 432 497 39,000  Level Washington Center
Wed 11:53:31 AM 35.5172 -79.3458 31° Northeast 444 511 39,000  Level Washington Center
Wed 11:54:31 AM 35.6239 -79.2717 29° Northeast 444 511 39,000  Level Washington Center
Wed 11:55:31 AM 35.7306 -79.1947 30° Northeast 438 504 39,000  Level Washington Center
Wed 11:56:31 AM 35.8458 -79.1078 31° Northeast 438 504 39,000  Level Washington Center
Wed 11:57:31 AM 35.9522 -79.0303 31° Northeast 438 504 39,000  Level Washington Center
Wed 11:58:32 AM 36.0611 -78.9478 31° Northeast 438 504 39,000  Level Washington Center
Wed 11:59:31 AM 36.1675 -78.8700 31° Northeast 438 504 39,000  Level Washington Center
Wed 12:00:31 PM 36.2761 -78.7869 32° Northeast 438 504 39,000  Level Washington Center
Wed 12:01:31 PM 36.3825 -78.7086 31° Northeast 438 504 39,000  Level Washington Center
Wed 12:02:31 PM 36.4911 -78.6278 31° Northeast 443 510 39,000  Level Washington Center
Wed 12:03:31 PM 36.5975 -78.5464 32° Northeast 443 510 39,000  Level Washington Center
Wed 12:04:31 PM 36.6911 -78.4697 33° Northeast 443 510 39,000  Level Washington Center
Wed 12:05:31 PM 36.8078 -78.3858 30° Northeast 437 503 39,000  Level Washington Center
Wed 12:06:31 PM 36.9100 -78.2961 35° Northeast 437 503 39,000  Level Washington Center
Wed 12:07:31 PM 37.0125 -78.1931 39° Northeast 461 531 39,000  Level Washington Center
Wed 12:08:31 PM 37.0978 -78.1100 38° Northeast 451 519 39,000  Level Washington Center
Wed 12:09:31 PM 37.1978 -78.0114 38° Northeast 451 519 39,000  Level Washington Center
Wed 12:11:00 PM 37.3219 -77.8825 40° Northeast  Level FlightAware Approximate
Wed 12:11:31 PM 37.3956 -77.8164 40° Northeast 451 519 39,000  Level Washington Center
Wed 12:12:31 PM 37.4953 -77.7172 38° Northeast 451 519 39,000  Level Washington Center
Wed 12:13:31 PM 37.5931 -77.6178 39° Northeast 451 519 39,000  Level Washington Center
Wed 12:14:31 PM 37.6925 -77.5233 37° Northeast 451 519 39,000 -400 Level Washington Center
Wed 12:15:31 PM 37.7986 -77.4131 39° Northeast 451 519 38,200 -1,150 Descending Washington Center
Wed 12:16:31 PM 37.9003 -77.3128 38° Northeast 451 519 36,700 -1,500 Descending Washington Center
Wed 12:17:31 PM 37.9997 -77.2097 39° Northeast 451 519 35,200 -1,500 Descending Washington Center
Wed 12:18:31 PM 38.1031 -77.1169 35° Northeast 451 519 33,700 -1,500 Descending Washington Center
Wed 12:19:31 PM 38.2106 -77.0292 33° Northeast 451 519 32,200 -1,339 Descending Washington Center
Wed 12:20:32 PM 38.2947 -76.9594 33° Northeast 451 519 31,000 -1,450 Descending Washington Center
Wed 12:21:31 PM 38.4083 -76.8661 33° Northeast 451 519 29,300 -1,613 Descending Washington Center
Wed 12:22:31 PM 38.5242 -76.7647 34° Northeast 446 513 27,800 -1,500 Descending Washington Center
Wed 12:23:31 PM 38.6311 -76.6761 33° Northeast 451 519 26,300 -900 Descending Washington Center
Wed 12:24:31 PM 38.7383 -76.5869 33° Northeast 451 519 26,000 -298 Descending Washington Center
Wed 12:25:32 PM 38.8453 -76.4925 35° Northeast 451 519 25,700 -450 Descending Washington Center
Wed 12:26:31 PM 38.9503 -76.4031 34° Northeast 451 519 25,100 -605 Descending Washington Center
Wed 12:27:31 PM 39.0550 -76.3133 34° Northeast 451 519 24,500 -545 Descending Washington Center
Wed 12:28:32 PM 39.1578 -76.2181 36° Northeast 451 519 24,000 -250 Descending Washington Center
Wed 12:29:31 PM 39.2478 -76.1222 39° Northeast 457 526 24,000 -252 Level Washington Center
Wed 12:30:31 PM 39.3461 -76.0236 38° Northeast 457 526 23,500 -1,214 Descending Washington Center
Wed 12:30:55 PM 39.3944 -75.9750 38° Northeast 448 516 22,300 -2,533 Descending FAA TRACON SMA TRACON (SMA)
Wed 12:31:16 PM 39.4253 -75.9458 36° Northeast 448 516 21,600 -2,488 Descending FAA TRACON SMA TRACON (SMA)
Wed 12:31:36 PM 39.4639 -75.9092 36° Northeast 448 516 20,600 -2,615 Descending FAA TRACON SMA TRACON (SMA)
Wed 12:31:55 PM 39.4942 -75.8806 36° Northeast 446 513 19,900 -2,154 Descending FAA TRACON SMA TRACON (SMA)
Wed 12:32:15 PM 39.5247 -75.8514 36° Northeast 439 505 19,200 -2,341 Descending FAA TRACON SMA TRACON (SMA)
Wed 12:32:36 PM 39.5608 -75.8169 36° Northeast 433 498 18,300 -2,341 Descending FAA TRACON SMA TRACON (SMA)
Wed 12:32:56 PM 39.5911 -75.7886 36° Northeast 429 494 17,600 -2,154 Descending FAA TRACON SMA TRACON (SMA)
Wed 12:33:15 PM 39.6208 -75.7606 36° Northeast 428 493 16,900 -2,250 Descending FAA TRACON SMA TRACON (SMA)
Wed 12:33:36 PM 39.6556 -75.7272 36° Northeast 426 490 16,100 -2,049 Descending FAA TRACON SMA TRACON (SMA)
Wed 12:33:56 PM 39.6864 -75.6992 35° Northeast 424 488 15,500 -2,154 Descending FAA TRACON SMA TRACON (SMA)
Wed 12:34:15 PM 39.7164 -75.6731 34° Northeast 419 482 14,700 -2,250 Descending FAA TRACON SMA TRACON (SMA)
Wed 12:34:36 PM 39.7456 -75.6467 35° Northeast 416 479 14,000 -2,195 Descending FAA TRACON SMA TRACON (SMA)
Wed 12:34:56 PM 39.7814 -75.6142 35° Northeast 413 475 13,200 -1,385 Descending FAA TRACON SMA TRACON (SMA)
Wed 12:35:15 PM 39.8100 -75.5875 36° Northeast 408 470 13,100 -154 Descending FAA TRACON SMA TRACON (SMA)
Wed 12:35:35 PM 39.8453 -75.5558 35° Northeast 403 464 13,100  Level FAA TRACON SMA TRACON (SMA)
Wed 12:35:56 PM 39.8733 -75.5292 36° Northeast 403 464 13,100  Level FAA TRACON SMA TRACON (SMA)
Wed 12:36:16 PM 39.9017 -75.5031 35° Northeast 404 465 13,100  Level FAA TRACON SMA TRACON (SMA)
Wed 12:36:35 PM 39.9297 -75.4767 36° Northeast 402 463 13,100  Level FAA TRACON SMA TRACON (SMA)
Wed 12:36:56 PM 39.9650 -75.4439 35° Northeast 402 463 13,100  Level FAA TRACON SMA TRACON (SMA)
Wed 12:37:16 PM 39.9931 -75.4178 35° Northeast 400 460 13,100  Level FAA TRACON SMA TRACON (SMA)
Wed 12:37:36 PM 40.0275 -75.3856 36° Northeast 402 463 13,100  Level FAA TRACON SMA TRACON (SMA)
Wed 12:37:55 PM 40.0564 -75.3586 36° Northeast 401 461 13,100  Level FAA TRACON SMA TRACON (SMA)
Wed 12:38:16 PM 40.0847 -75.3322 35° Northeast 401 461 13,100  Level FAA TRACON SMA TRACON (SMA)
Wed 12:38:36 PM 40.1122 -75.3069 35° Northeast 399 459 13,100 -154 Level FAA TRACON SMA TRACON (SMA)
Wed 12:38:55 PM 40.1408 -75.2806 35° Northeast 402 463 13,000 -769 Descending FAA TRACON SMA TRACON (SMA)
Wed 12:39:15 PM 40.1756 -75.2481 36° Northeast 397 457 12,600 -1,429 Descending FAA TRACON SMA TRACON (SMA)
Wed 12:39:37 PM 40.1997 -75.2258 35° Northeast 349 402 12,000 -1,756 Descending FAA TRACON SMA TRACON (SMA)
Wed 12:39:56 PM 40.2306 -75.1961 36° Northeast 340 391 11,400 -1,463 Descending FAA TRACON SMA TRACON (SMA)
Wed 12:40:18 PM 40.2533 -75.1756 35° Northeast 319 367 11,000 -1,429 Descending FAA TRACON SMA TRACON (SMA)
Wed 12:40:38 PM 40.2806 -75.1494 36° Northeast 321 369 10,400 -1,622 Descending FAA TRACON SMA TRACON (SMA)
Wed 12:40:55 PM 40.2972 -75.1353 33° Northeast 312 359 10,000 -1,622 Descending FAA TRACON SMA TRACON (SMA)
Wed 12:41:15 PM 40.3231 -75.1083 38° Northeast 314 361 9,400 -1,756 Descending FAA TRACON SMA TRACON (SMA)
Wed 12:41:36 PM 40.3414 -75.0825 47° Northeast 315 362 8,800 -1,902 Descending FAA TRACON SMA TRACON (SMA)
Wed 12:41:56 PM 40.3650 -75.0508 46° Northeast 310 357 8,100 -1,800 Descending FAA TRACON SMA TRACON (SMA)
Wed 12:42:16 PM 40.3831 -75.0258 47° Northeast 308 354 7,600 -1,385 Descending FAA TRACON SMA TRACON (SMA)
Wed 12:42:35 PM 40.4011 -75.0008 47° Northeast 307 353 7,200 -1,077 Descending FAA TRACON SMA TRACON (SMA)
Wed 12:42:55 PM 40.4208 -74.9708 49° Northeast 300 345 6,900 -977 Descending FAA TRACON SMA TRACON (SMA)
Wed 12:43:18 PM 40.4400 -74.9469 43° Northeast 290 334 6,500 -1,256 Descending FAA TRACON SMA TRACON (SMA)
Wed 12:43:38 PM 40.4669 -74.9253 31° Northeast 299 344 6,000 -1,421 Descending FAA TRACON SMA TRACON (SMA)
Wed 12:43:56 PM 40.4867 -74.9092 32° Northeast 302 348 5,600 -1,105 Descending FAA TRACON SMA TRACON (SMA)
Wed 12:44:16 PM 40.5111 -74.8917 29° Northeast 296 341 5,300 -769 Descending FAA TRACON SMA TRACON (SMA)
Wed 12:44:35 PM 40.5214 -74.8831 32° Northeast 295 339 5,100 -308 Descending FAA TRACON SMA TRACON (SMA)
Wed 12:44:55 PM 40.5214 -74.8831 108° East 295 339 5,100 -1,224 Level FAA TRACON SMA TRACON (SMA)
Wed 12:45:24 PM 40.5833 -74.8333 31° Northeast 278 320 4,100 -674 Descending New York TRACON
Wed 12:46:24 PM 40.6333 -74.7667 45° Northeast 273 314 4,100  Level New York TRACON
Wed 12:47:24 PM 40.7000 -74.7000 37° Northeast 282 325 4,100  Level New York TRACON
Wed 12:48:24 PM 40.7667 -74.6333 37° Northeast 276 318 4,100  Level New York TRACON
Wed 12:49:24 PM 40.8167 -74.5667 45° Northeast 279 321 4,100 -100 Level New York TRACON
Wed 12:50:24 PM 40.8667 -74.4833 52° Northeast 287 330 3,900 -500 Descending New York TRACON
Wed 12:51:24 PM 40.9167 -74.4000 52° Northeast 277 319 3,100 -381 Descending New York TRACON
Wed 12:52:30 PM 40.9667 -74.3167 52° Northeast 260 299 3,100 -190 Level New York TRACON
Wed 12:53:30 PM 40.9833 -74.2333 75° East 262 302 2,700 -500 Descending New York TRACON
Wed 12:54:30 PM 41.0167 -74.1500 62° Northeast 218 251 2,100 -300 Descending New York TRACON
Wed 12:55:30 PM 41.0000 -74.1000 114° Southeast 203 234 2,100  Level New York TRACON
Wed 12:56:30 PM 40.9500 -74.0500 143° Southeast 199 229 2,100 -400 Level New York TRACON
Wed 12:57:30 PM 40.9167 -74.0500 180° South 159 183 1,300 -800 Descending New York TRACON
Wed 12:58:30 PM 40.8667 -74.0500 180° South 130 150 500 -800 Descending New York TRACON
Wed 01:00:00 PM 40.8500 -74.0500 57° Northeast  Level FlightAware Approximate
Wed 01:07:00 PM 40.8501 -74.0608 57° Northeast  Level Estimated

Login

Don't have an account? Register now (free) for customized features, flight alerts, and more!